Sirma — PJLU — position and weather

sailwx.info

Track history (hours):
 
Tides and Currents Weather Stations Pressure Air Temp Water Temp Dewpoint Dewpoint Depression Visibility Wind Speed Wind Dir Waves Ship Positions

Sirma

Last reported at 2018-Jul-21 10:00 UTC. Time now 2018-Jul-21 17:15 UTC.
Position N 38°52' E 001°25'.

Length 18 m.

Type: Pleasure craft. MMSI: 306053000.

Date/timePositionNaut miles runAvg speedWind from/ knotsBaromVisibWave heightAir tempDewpointWater temp
2018-Jul-21 10:00N 38°52' E 001°25'2 2.9
2018-Jul-21 09:28N 38°53' E 001°25'0 0.0
2018-Jul-21 08:55N 38°53' E 001°25'0 0.0
2018-Jul-21 08:22N 38°53' E 001°25'0 0.0
2018-Jul-21 07:58N 38°53' E 001°25'0 0.0
2018-Jul-21 07:28N 38°53' E 001°25'0 0.0
2018-Jul-21 06:49N 38°53' E 001°25'0 0.0
2018-Jul-21 06:22N 38°53' E 001°25'0 0.0
2018-Jul-21 05:55N 38°53' E 001°25'0 0.0
2018-Jul-21 05:19N 38°53' E 001°25'0 0.0
2018-Jul-21 04:58N 38°53' E 001°25'0 0.0
2018-Jul-21 04:28N 38°53' E 001°25'0 0.0
2018-Jul-21 03:58N 38°53' E 001°25'0 0.0
2018-Jul-21 03:28N 38°53' E 001°25'0 0.0
2018-Jul-21 02:58N 38°53' E 001°25'0 0.0
2018-Jul-21 02:28N 38°53' E 001°25'0 0.0
2018-Jul-21 01:58N 38°53' E 001°25'0 0.0
2018-Jul-21 01:28N 38°53' E 001°25'0 0.0
2018-Jul-21 00:49N 38°53' E 001°25'0 0.0
2018-Jul-21 00:28N 38°53' E 001°25'0 0.0
2018-Jul-20 23:58N 38°53' E 001°25'0 0.0
2018-Jul-20 23:28N 38°53' E 001°25'0 0.0
2018-Jul-20 22:49N 38°53' E 001°25'0 0.0
2018-Jul-20 22:25N 38°53' E 001°25'0 0.0
2018-Jul-20 22:01N 38°53' E 001°25'0 0.0
2018-Jul-20 21:28N 38°53' E 001°25'0 0.0
2018-Jul-20 20:55N 38°53' E 001°25'0 0.0
2018-Jul-20 20:28N 38°53' E 001°25'0 0.1
2018-Jul-20 20:01N 38°53' E 001°25'0 0.0
2018-Jul-20 19:28N 38°53' E 001°25'0 0.0
2018-Jul-20 18:55N 38°53' E 001°25'0 0.0
2018-Jul-20 18:30N 38°53' E 001°25'0 0.0
2018-Jul-20 17:55N 38°53' E 001°25'0 0.0
2018-Jul-20 17:28N 38°53' E 001°25'0 0.0
2018-Jul-20 16:34N 38°53' E 001°25'0 0.1
2018-Jul-20 16:22N 38°53' E 001°25'0 0.0
2018-Jul-20 15:35N 38°53' E 001°25'0 0.1
2018-Jul-20 15:23N 38°53' E 001°25'0 0.0
2018-Jul-20 14:56N 38°53' E 001°25'0 0.0
2018-Jul-20 13:59N 38°53' E 001°25'0 0.0
2018-Jul-20 13:26N 38°53' E 001°25'0 0.0
2018-Jul-20 11:23N 38°53' E 001°25'0 0.0
2018-Jul-20 10:49N 38°53' E 001°25'0 0.1
2018-Jul-20 10:28N 38°53' E 001°25'0 0.0
2018-Jul-20 09:42N 38°53' E 001°25'0 0.0
2018-Jul-20 09:24N 38°53' E 001°25'0 0.0
2018-Jul-20 08:54N 38°53' E 001°25'0 0.0
2018-Jul-20 08:26N 38°53' E 001°25'0 0.0
2018-Jul-20 07:53N 38°53' E 001°25'0 0.0
2018-Jul-20 07:29N 38°53' E 001°25'0 0.0
2018-Jul-20 06:56N 38°53' E 001°25'0 0.0
2018-Jul-20 06:10N 38°53' E 001°25'0 0.0
2018-Jul-20 04:05N 38°53' E 001°25'0 0.0
2018-Jul-19 12:46N 38°53' E 001°25'2 4.1
2018-Jul-19 12:20N 38°54' E 001°27'2 6.5
2018-Jul-19 11:59N 38°55' E 001°30'3 6.3
2018-Jul-19 11:29N 38°57' E 001°32'53 2.1
2018-Jul-18 09:41N 39°26' E 002°30'1 7.6
2018-Jul-18 09:30N 39°27' E 002°31'3 6.3
2018-Jul-18 09:00N 39°30' E 002°32'0 0.0
2018-Jul-18 08:30N 39°30' E 002°32'0 0.0
2018-Jul-18 08:00N 39°30' E 002°32'0 0.0
2018-Jul-18 07:30N 39°30' E 002°32'0 0.0
2018-Jul-18 06:58N 39°30' E 002°32'0 0.0
2018-Jul-18 06:28N 39°30' E 002°32'0 0.0
2018-Jul-18 05:58N 39°30' E 002°32'0 0.0
2018-Jul-18 05:25N 39°30' E 002°32'0 0.0
2018-Jul-18 04:58N 39°30' E 002°32'0 0.0
2018-Jul-18 04:28N 39°30' E 002°32'0 0.0
2018-Jul-18 03:58N 39°30' E 002°32'0 0.0
2018-Jul-18 03:28N 39°30' E 002°32'0 0.0
2018-Jul-18 02:58N 39°30' E 002°32'0 0.0
2018-Jul-18 02:28N 39°30' E 002°32'0 0.0
2018-Jul-18 01:55N 39°30' E 002°32'0 0.0
2018-Jul-18 01:25N 39°30' E 002°32'0 0.0
2018-Jul-18 00:58N 39°30' E 002°32'0 0.0
2018-Jul-18 00:28N 39°30' E 002°32'0 0.0
2018-Jul-17 23:58N 39°30' E 002°32'0 0.0
2018-Jul-17 23:25N 39°30' E 002°32'0 0.0
2018-Jul-17 22:55N 39°30' E 002°32'0 0.0
2018-Jul-17 22:28N 39°30' E 002°32'0 0.0
2018-Jul-17 21:58N 39°30' E 002°32'0 0.0
2018-Jul-17 21:28N 39°30' E 002°32'0 0.0
2018-Jul-17 20:58N 39°30' E 002°32'0 0.0
2018-Jul-17 20:27N 39°30' E 002°32'0 0.0
2018-Jul-17 20:00N 39°30' E 002°32'0 0.0
2018-Jul-17 19:30N 39°30' E 002°32'0 0.0
2018-Jul-17 19:00N 39°30' E 002°32'0 0.0
2018-Jul-17 18:30N 39°30' E 002°32'0 0.0
2018-Jul-17 18:00N 39°30' E 002°32'0 0.0
2018-Jul-17 17:30N 39°30' E 002°32'0 0.0
2018-Jul-17 16:57N 39°30' E 002°32'0 0.0
2018-Jul-17 16:30N 39°30' E 002°32'0 0.0
2018-Jul-17 16:00N 39°30' E 002°32'0 0.0
2018-Jul-17 15:27N 39°30' E 002°32'0 0.0
2018-Jul-17 15:00N 39°30' E 002°32'0 0.0
2018-Jul-17 14:30N 39°30' E 002°32'0 0.0
2018-Jul-17 14:00N 39°30' E 002°32'1 1.9
2018-Jul-17 13:30N 39°31' E 002°33'3 6.4
2018-Jul-17 12:59N 39°32' E 002°37'2 3.4
2018-Jul-17 12:28N 39°34' E 002°38'0 0.1
2018-Jul-17 11:58N 39°34' E 002°38'0 0.0
2018-Jul-17 11:28N 39°34' E 002°38'0 0.0
2018-Jul-17 10:58N 39°34' E 002°38'0 0.0
2018-Jul-17 10:28N 39°34' E 002°38'0 0.0
2018-Jul-17 09:58N 39°34' E 002°38'0 0.0
2018-Jul-17 09:28N 39°34' E 002°38'0 0.0
2018-Jul-17 08:58N 39°34' E 002°38'0 0.0
2018-Jul-17 08:28N 39°34' E 002°38'0 0.0
2018-Jul-17 07:58N 39°34' E 002°38'0 0.0
2018-Jul-17 07:28N 39°34' E 002°38'0 0.0
2018-Jul-17 06:58N 39°34' E 002°38'0 0.0
2018-Jul-17 06:28N 39°34' E 002°38'0 0.0
2018-Jul-17 05:59N 39°34' E 002°38'0 0.0
2018-Jul-17 05:29N 39°34' E 002°38'0 0.0
2018-Jul-17 04:59N 39°34' E 002°38'0 0.0
2018-Jul-17 04:29N 39°34' E 002°38'0 0.0
2018-Jul-17 03:59N 39°34' E 002°38'0 0.0
2018-Jul-17 03:29N 39°34' E 002°38'0 0.0
2018-Jul-17 02:59N 39°34' E 002°38'0 0.0
2018-Jul-17 02:29N 39°34' E 002°38'0 0.0
2018-Jul-17 01:59N 39°34' E 002°38'0 0.0
2018-Jul-17 01:29N 39°34' E 002°38'0 0.0
2018-Jul-17 00:59N 39°34' E 002°38'0 0.0
2018-Jul-17 00:29N 39°34' E 002°38'0 0.0
2018-Jul-16 23:29N 39°34' E 002°38'0 0.0
2018-Jul-16 22:59N 39°34' E 002°38'0 0.0
2018-Jul-16 22:29N 39°34' E 002°38'0 0.0
2018-Jul-16 21:59N 39°34' E 002°38'0 0.0
2018-Jul-16 21:29N 39°34' E 002°38'0 0.0
2018-Jul-16 20:59N 39°34' E 002°38'0 0.0
2018-Jul-16 20:29N 39°34' E 002°38'0 0.0
2018-Jul-16 19:59N 39°34' E 002°38'0 0.0
2018-Jul-16 19:29N 39°34' E 002°38'0 0.0
2018-Jul-16 18:59N 39°34' E 002°38'0 0.0
2018-Jul-16 18:29N 39°34' E 002°38'0 0.0
2018-Jul-16 17:59N 39°34' E 002°38'0 0.0
2018-Jul-16 17:29N 39°34' E 002°38'0 0.0
2018-Jul-16 16:59N 39°34' E 002°38'0 0.0
2018-Jul-16 16:29N 39°34' E 002°38'0 0.0
2018-Jul-16 15:59N 39°34' E 002°38'0 0.0
2018-Jul-16 15:29N 39°34' E 002°38'0 0.0
2018-Jul-16 14:59N 39°34' E 002°38'  
2018-Jul-11 15:12N 39°34' E 002°38'0 0.0
2018-Jul-11 15:00N 39°34' E 002°38'0 0.0
2018-Jul-11 14:30N 39°34' E 002°38'0 0.0
2018-Jul-11 13:57N 39°34' E 002°38'0 0.0
2018-Jul-11 13:27N 39°34' E 002°38'0 0.0
2018-Jul-11 13:00N 39°34' E 002°38'0 0.0
2018-Jul-11 12:30N 39°34' E 002°38'0 0.0
2018-Jul-11 12:00N 39°34' E 002°38'0 0.0
2018-Jul-11 11:30N 39°34' E 002°38'1 3.0
2018-Jul-11 11:00N 39°33' E 002°37'0 0.5
2018-Jul-11 10:26N 39°33' E 002°36'  
Track history (hours):
 
Tides and Currents Weather Stations Pressure Air Temp Water Temp Dewpoint Dewpoint Depression Visibility Wind Speed Wind Dir Waves Ship Positions

Sirma

Last reported at 2018-Jul-21 10:00 UTC. Time now 2018-Jul-21 17:15 UTC.
Position N 38°52' E 001°25'.

Length 18 m.

Type: Pleasure craft. MMSI: 306053000.

Date/timePositionNaut miles runAvg speedWind from/ knotsBaromVisibWave heightAir tempDewpointWater temp
2018-Jul-21 10:00N 38°52' E 001°25'2 2.9
2018-Jul-21 09:28N 38°53' E 001°25'0 0.0
2018-Jul-21 08:55N 38°53' E 001°25'0 0.0
2018-Jul-21 08:22N 38°53' E 001°25'0 0.0
2018-Jul-21 07:58N 38°53' E 001°25'0 0.0
2018-Jul-21 07:28N 38°53' E 001°25'0 0.0
2018-Jul-21 06:49N 38°53' E 001°25'0 0.0
2018-Jul-21 06:22N 38°53' E 001°25'0 0.0
2018-Jul-21 05:55N 38°53' E 001°25'0 0.0
2018-Jul-21 05:19N 38°53' E 001°25'0 0.0
2018-Jul-21 04:58N 38°53' E 001°25'0 0.0
2018-Jul-21 04:28N 38°53' E 001°25'0 0.0
2018-Jul-21 03:58N 38°53' E 001°25'0 0.0
2018-Jul-21 03:28N 38°53' E 001°25'0 0.0
2018-Jul-21 02:58N 38°53' E 001°25'0 0.0
2018-Jul-21 02:28N 38°53' E 001°25'0 0.0
2018-Jul-21 01:58N 38°53' E 001°25'0 0.0
2018-Jul-21 01:28N 38°53' E 001°25'0 0.0
2018-Jul-21 00:49N 38°53' E 001°25'0 0.0
2018-Jul-21 00:28N 38°53' E 001°25'0 0.0
2018-Jul-20 23:58N 38°53' E 001°25'0 0.0
2018-Jul-20 23:28N 38°53' E 001°25'0 0.0
2018-Jul-20 22:49N 38°53' E 001°25'0 0.0
2018-Jul-20 22:25N 38°53' E 001°25'0 0.0
2018-Jul-20 22:01N 38°53' E 001°25'0 0.0
2018-Jul-20 21:28N 38°53' E 001°25'0 0.0
2018-Jul-20 20:55N 38°53' E 001°25'0 0.0
2018-Jul-20 20:28N 38°53' E 001°25'0 0.1
2018-Jul-20 20:01N 38°53' E 001°25'0 0.0
2018-Jul-20 19:28N 38°53' E 001°25'0 0.0
2018-Jul-20 18:55N 38°53' E 001°25'0 0.0
2018-Jul-20 18:30N 38°53' E 001°25'0 0.0
2018-Jul-20 17:55N 38°53' E 001°25'0 0.0
2018-Jul-20 17:28N 38°53' E 001°25'0 0.0
2018-Jul-20 16:34N 38°53' E 001°25'0 0.1
2018-Jul-20 16:22N 38°53' E 001°25'0 0.0
2018-Jul-20 15:35N 38°53' E 001°25'0 0.1
2018-Jul-20 15:23N 38°53' E 001°25'0 0.0
2018-Jul-20 14:56N 38°53' E 001°25'0 0.0
2018-Jul-20 13:59N 38°53' E 001°25'0 0.0
2018-Jul-20 13:26N 38°53' E 001°25'0 0.0
2018-Jul-20 11:23N 38°53' E 001°25'0 0.0
2018-Jul-20 10:49N 38°53' E 001°25'0 0.1
2018-Jul-20 10:28N 38°53' E 001°25'0 0.0
2018-Jul-20 09:42N 38°53' E 001°25'0 0.0
2018-Jul-20 09:24N 38°53' E 001°25'0 0.0
2018-Jul-20 08:54N 38°53' E 001°25'0 0.0
2018-Jul-20 08:26N 38°53' E 001°25'0 0.0
2018-Jul-20 07:53N 38°53' E 001°25'0 0.0
2018-Jul-20 07:29N 38°53' E 001°25'0 0.0
2018-Jul-20 06:56N 38°53' E 001°25'0 0.0
2018-Jul-20 06:10N 38°53' E 001°25'0 0.0
2018-Jul-20 04:05N 38°53' E 001°25'0 0.0
2018-Jul-19 12:46N 38°53' E 001°25'2 4.1
2018-Jul-19 12:20N 38°54' E 001°27'2 6.5
2018-Jul-19 11:59N 38°55' E 001°30'3 6.3
2018-Jul-19 11:29N 38°57' E 001°32'53 2.1
2018-Jul-18 09:41N 39°26' E 002°30'1 7.6
2018-Jul-18 09:30N 39°27' E 002°31'3 6.3
2018-Jul-18 09:00N 39°30' E 002°32'0 0.0
2018-Jul-18 08:30N 39°30' E 002°32'0 0.0
2018-Jul-18 08:00N 39°30' E 002°32'0 0.0
2018-Jul-18 07:30N 39°30' E 002°32'0 0.0
2018-Jul-18 06:58N 39°30' E 002°32'0 0.0
2018-Jul-18 06:28N 39°30' E 002°32'0 0.0
2018-Jul-18 05:58N 39°30' E 002°32'0 0.0
2018-Jul-18 05:25N 39°30' E 002°32'0 0.0
2018-Jul-18 04:58N 39°30' E 002°32'0 0.0
2018-Jul-18 04:28N 39°30' E 002°32'0 0.0
2018-Jul-18 03:58N 39°30' E 002°32'0 0.0
2018-Jul-18 03:28N 39°30' E 002°32'0 0.0
2018-Jul-18 02:58N 39°30' E 002°32'0 0.0
2018-Jul-18 02:28N 39°30' E 002°32'0 0.0
2018-Jul-18 01:55N 39°30' E 002°32'0 0.0
2018-Jul-18 01:25N 39°30' E 002°32'0 0.0
2018-Jul-18 00:58N 39°30' E 002°32'0 0.0
2018-Jul-18 00:28N 39°30' E 002°32'0 0.0
2018-Jul-17 23:58N 39°30' E 002°32'0 0.0
2018-Jul-17 23:25N 39°30' E 002°32'0 0.0
2018-Jul-17 22:55N 39°30' E 002°32'0 0.0
2018-Jul-17 22:28N 39°30' E 002°32'0 0.0
2018-Jul-17 21:58N 39°30' E 002°32'0 0.0
2018-Jul-17 21:28N 39°30' E 002°32'0 0.0
2018-Jul-17 20:58N 39°30' E 002°32'0 0.0
2018-Jul-17 20:27N 39°30' E 002°32'0 0.0
2018-Jul-17 20:00N 39°30' E 002°32'0 0.0
2018-Jul-17 19:30N 39°30' E 002°32'0 0.0
2018-Jul-17 19:00N 39°30' E 002°32'0 0.0
2018-Jul-17 18:30N 39°30' E 002°32'0 0.0
2018-Jul-17 18:00N 39°30' E 002°32'0 0.0
2018-Jul-17 17:30N 39°30' E 002°32'0 0.0
2018-Jul-17 16:57N 39°30' E 002°32'0 0.0
2018-Jul-17 16:30N 39°30' E 002°32'0 0.0
2018-Jul-17 16:00N 39°30' E 002°32'0 0.0
2018-Jul-17 15:27N 39°30' E 002°32'0 0.0
2018-Jul-17 15:00N 39°30' E 002°32'0 0.0
2018-Jul-17 14:30N 39°30' E 002°32'0 0.0
2018-Jul-17 14:00N 39°30' E 002°32'1 1.9
2018-Jul-17 13:30N 39°31' E 002°33'3 6.4
2018-Jul-17 12:59N 39°32' E 002°37'2 3.4
2018-Jul-17 12:28N 39°34' E 002°38'0 0.1
2018-Jul-17 11:58N 39°34' E 002°38'0 0.0
2018-Jul-17 11:28N 39°34' E 002°38'0 0.0
2018-Jul-17 10:58N 39°34' E 002°38'0 0.0
2018-Jul-17 10:28N 39°34' E 002°38'0 0.0
2018-Jul-17 09:58N 39°34' E 002°38'0 0.0
2018-Jul-17 09:28N 39°34' E 002°38'0 0.0
2018-Jul-17 08:58N 39°34' E 002°38'0 0.0
2018-Jul-17 08:28N 39°34' E 002°38'0 0.0
2018-Jul-17 07:58N 39°34' E 002°38'0 0.0
2018-Jul-17 07:28N 39°34' E 002°38'0 0.0
2018-Jul-17 06:58N 39°34' E 002°38'0 0.0
2018-Jul-17 06:28N 39°34' E 002°38'0 0.0
2018-Jul-17 05:59N 39°34' E 002°38'0 0.0
2018-Jul-17 05:29N 39°34' E 002°38'0 0.0
2018-Jul-17 04:59N 39°34' E 002°38'0 0.0
2018-Jul-17 04:29N 39°34' E 002°38'0 0.0
2018-Jul-17 03:59N 39°34' E 002°38'0 0.0
2018-Jul-17 03:29N 39°34' E 002°38'0 0.0
2018-Jul-17 02:59N 39°34' E 002°38'0 0.0
2018-Jul-17 02:29N 39°34' E 002°38'0 0.0
2018-Jul-17 01:59N 39°34' E 002°38'0 0.0
2018-Jul-17 01:29N 39°34' E 002°38'0 0.0
2018-Jul-17 00:59N 39°34' E 002°38'0 0.0
2018-Jul-17 00:29N 39°34' E 002°38'0 0.0
2018-Jul-16 23:29N 39°34' E 002°38'0 0.0
2018-Jul-16 22:59N 39°34' E 002°38'0 0.0
2018-Jul-16 22:29N 39°34' E 002°38'0 0.0
2018-Jul-16 21:59N 39°34' E 002°38'0 0.0
2018-Jul-16 21:29N 39°34' E 002°38'0 0.0
2018-Jul-16 20:59N 39°34' E 002°38'0 0.0
2018-Jul-16 20:29N 39°34' E 002°38'0 0.0
2018-Jul-16 19:59N 39°34' E 002°38'0 0.0
2018-Jul-16 19:29N 39°34' E 002°38'0 0.0
2018-Jul-16 18:59N 39°34' E 002°38'0 0.0
2018-Jul-16 18:29N 39°34' E 002°38'0 0.0
2018-Jul-16 17:59N 39°34' E 002°38'0 0.0
2018-Jul-16 17:29N 39°34' E 002°38'0 0.0
2018-Jul-16 16:59N 39°34' E 002°38'0 0.0
2018-Jul-16 16:29N 39°34' E 002°38'0 0.0
2018-Jul-16 15:59N 39°34' E 002°38'0 0.0
2018-Jul-16 15:29N 39°34' E 002°38'0 0.0
2018-Jul-16 14:59N 39°34' E 002°38'  
2018-Jul-11 15:12N 39°34' E 002°38'0 0.0
2018-Jul-11 15:00N 39°34' E 002°38'0 0.0
2018-Jul-11 14:30N 39°34' E 002°38'0 0.0
2018-Jul-11 13:57N 39°34' E 002°38'0 0.0
2018-Jul-11 13:27N 39°34' E 002°38'0 0.0
2018-Jul-11 13:00N 39°34' E 002°38'0 0.0
2018-Jul-11 12:30N 39°34' E 002°38'0 0.0
2018-Jul-11 12:00N 39°34' E 002°38'0 0.0
2018-Jul-11 11:30N 39°34' E 002°38'1 3.0
2018-Jul-11 11:00N 39°33' E 002°37'0 0.5
2018-Jul-11 10:26N 39°33' E 002°36'  

Dump ship's entire track history